sensor_id;sensor_type;location;lat;lon;timestamp;P1;durP1;ratioP1;P2;durP2;ratioP2
25365;SDS011;13315;48.274;-1.900;2022-11-15T00:01:44;0.98;;;0.60;;
25365;SDS011;13315;48.274;-1.900;2022-11-15T00:04:10;3.10;;;0.85;;
25365;SDS011;13315;48.274;-1.900;2022-11-15T00:06:36;2.70;;;0.93;;
25365;SDS011;13315;48.274;-1.900;2022-11-15T00:09:02;1.70;;;0.88;;
25365;SDS011;13315;48.274;-1.900;2022-11-15T00:11:28;0.77;;;0.77;;
25365;SDS011;13315;48.274;-1.900;2022-11-15T00:13:55;2.88;;;0.80;;
25365;SDS011;13315;48.274;-1.900;2022-11-15T00:16:21;1.85;;;0.88;;
25365;SDS011;13315;48.274;-1.900;2022-11-15T00:18:47;1.30;;;0.60;;
25365;SDS011;13315;48.274;-1.900;2022-11-15T00:21:13;3.03;;;0.77;;
25365;SDS011;13315;48.274;-1.900;2022-11-15T00:23:41;1.48;;;0.73;;
25365;SDS011;13315;48.274;-1.900;2022-11-15T00:26:08;0.95;;;0.63;;
25365;SDS011;13315;48.274;-1.900;2022-11-15T00:28:37;1.58;;;0.60;;
25365;SDS011;13315;48.274;-1.900;2022-11-15T00:31:04;5.53;;;1.00;;
25365;SDS011;13315;48.274;-1.900;2022-11-15T00:33:31;0.82;;;0.70;;
25365;SDS011;13315;48.274;-1.900;2022-11-15T00:36:04;2.75;;;0.80;;
25365;SDS011;13315;48.274;-1.900;2022-11-15T00:38:32;2.95;;;1.05;;
25365;SDS011;13315;48.274;-1.900;2022-11-15T00:40:59;1.63;;;0.60;;
25365;SDS011;13315;48.274;-1.900;2022-11-15T00:43:26;1.00;;;0.73;;
25365;SDS011;13315;48.274;-1.900;2022-11-15T00:45:51;2.22;;;0.60;;
25365;SDS011;13315;48.274;-1.900;2022-11-15T00:48:17;0.95;;;0.60;;
25365;SDS011;13315;48.274;-1.900;2022-11-15T00:50:43;1.52;;;0.80;;
25365;SDS011;13315;48.274;-1.900;2022-11-15T00:53:09;1.40;;;0.50;;
25365;SDS011;13315;48.274;-1.900;2022-11-15T00:55:34;1.63;;;0.60;;
25365;SDS011;13315;48.274;-1.900;2022-11-15T00:58:00;1.45;;;0.68;;
25365;SDS011;13315;48.274;-1.900;2022-11-15T01:00:26;1.58;;;0.80;;
25365;SDS011;13315;48.274;-1.900;2022-11-15T01:02:52;2.63;;;0.88;;
25365;SDS011;13315;48.274;-1.900;2022-11-15T01:05:18;2.08;;;0.70;;
25365;SDS011;13315;48.274;-1.900;2022-11-15T01:07:43;1.85;;;0.80;;
25365;SDS011;13315;48.274;-1.900;2022-11-15T01:10:09;2.15;;;0.82;;
25365;SDS011;13315;48.274;-1.900;2022-11-15T01:12:35;0.60;;;0.50;;
25365;SDS011;13315;48.274;-1.900;2022-11-15T01:15:00;1.08;;;0.60;;
25365;SDS011;13315;48.274;-1.900;2022-11-15T01:17:26;2.13;;;0.65;;
25365;SDS011;13315;48.274;-1.900;2022-11-15T01:19:52;1.98;;;0.60;;
25365;SDS011;13315;48.274;-1.900;2022-11-15T01:22:18;2.35;;;0.85;;
25365;SDS011;13315;48.274;-1.900;2022-11-15T01:24:44;1.75;;;0.57;;
25365;SDS011;13315;48.274;-1.900;2022-11-15T01:27:09;1.55;;;0.50;;
25365;SDS011;13315;48.274;-1.900;2022-11-15T01:29:35;0.70;;;0.60;;
25365;SDS011;13315;48.274;-1.900;2022-11-15T01:32:01;1.05;;;0.52;;
25365;SDS011;13315;48.274;-1.900;2022-11-15T01:34:27;2.55;;;0.93;;
25365;SDS011;13315;48.274;-1.900;2022-11-15T01:36:53;1.27;;;0.80;;
25365;SDS011;13315;48.274;-1.900;2022-11-15T01:39:18;2.83;;;0.73;;
25365;SDS011;13315;48.274;-1.900;2022-11-15T01:41:44;1.95;;;0.70;;
25365;SDS011;13315;48.274;-1.900;2022-11-15T01:47:23;1.35;;;0.70;;
25365;SDS011;13315;48.274;-1.900;2022-11-15T01:49:56;0.77;;;0.70;;
25365;SDS011;13315;48.274;-1.900;2022-11-15T01:52:38;0.63;;;0.60;;
25365;SDS011;13315;48.274;-1.900;2022-11-15T01:55:09;1.25;;;0.70;;
25365;SDS011;13315;48.274;-1.900;2022-11-15T01:57:39;0.95;;;0.70;;
25365;SDS011;13315;48.274;-1.900;2022-11-15T02:02:33;1.90;;;0.70;;
25365;SDS011;13315;48.274;-1.900;2022-11-15T02:05:01;1.20;;;0.70;;
25365;SDS011;13315;48.274;-1.900;2022-11-15T02:07:27;0.75;;;0.60;;
25365;SDS011;13315;48.274;-1.900;2022-11-15T02:09:54;1.20;;;0.70;;
25365;SDS011;13315;48.274;-1.900;2022-11-15T02:12:23;1.75;;;0.60;;
25365;SDS011;13315;48.274;-1.900;2022-11-15T02:14:50;4.97;;;1.25;;
25365;SDS011;13315;48.274;-1.900;2022-11-15T02:20:28;2.25;;;0.60;;
25365;SDS011;13315;48.274;-1.900;2022-11-15T02:29:07;1.15;;;0.70;;
25365;SDS011;13315;48.274;-1.900;2022-11-15T02:31:56;1.17;;;0.80;;
25365;SDS011;13315;48.274;-1.900;2022-11-15T02:34:35;1.75;;;0.73;;
25365;SDS011;13315;48.274;-1.900;2022-11-15T02:37:21;1.38;;;0.50;;
25365;SDS011;13315;48.274;-1.900;2022-11-15T02:42:48;1.23;;;0.80;;
25365;SDS011;13315;48.274;-1.900;2022-11-15T02:45:41;3.40;;;0.85;;
25365;SDS011;13315;48.274;-1.900;2022-11-15T02:48:13;1.77;;;0.63;;
25365;SDS011;13315;48.274;-1.900;2022-11-15T02:50:41;5.53;;;0.80;;
25365;SDS011;13315;48.274;-1.900;2022-11-15T02:53:08;1.38;;;0.50;;
25365;SDS011;13315;48.274;-1.900;2022-11-15T02:55:35;1.80;;;0.63;;
25365;SDS011;13315;48.274;-1.900;2022-11-15T03:11:32;1.83;;;0.80;;
25365;SDS011;13315;48.274;-1.900;2022-11-15T03:17:03;1.38;;;0.63;;
25365;SDS011;13315;48.274;-1.900;2022-11-15T03:19:46;3.70;;;0.80;;
25365;SDS011;13315;48.274;-1.900;2022-11-15T03:22:16;2.15;;;0.60;;
25365;SDS011;13315;48.274;-1.900;2022-11-15T03:24:46;1.23;;;0.50;;
25365;SDS011;13315;48.274;-1.900;2022-11-15T03:27:17;0.90;;;0.70;;
25365;SDS011;13315;48.274;-1.900;2022-11-15T03:29:48;1.17;;;0.60;;
25365;SDS011;13315;48.274;-1.900;2022-11-15T03:32:19;1.88;;;0.50;;
25365;SDS011;13315;48.274;-1.900;2022-11-15T03:34:50;4.10;;;0.90;;
25365;SDS011;13315;48.274;-1.900;2022-11-15T03:37:22;1.65;;;0.65;;
25365;SDS011;13315;48.274;-1.900;2022-11-15T03:39:54;1.05;;;0.60;;
25365;SDS011;13315;48.274;-1.900;2022-11-15T03:44:58;0.57;;;0.57;;
25365;SDS011;13315;48.274;-1.900;2022-11-15T03:47:48;1.48;;;0.50;;
25365;SDS011;13315;48.274;-1.900;2022-11-15T03:50:19;0.55;;;0.55;;
25365;SDS011;13315;48.274;-1.900;2022-11-15T03:52:47;0.82;;;0.50;;
25365;SDS011;13315;48.274;-1.900;2022-11-15T03:55:16;3.63;;;0.60;;
25365;SDS011;13315;48.274;-1.900;2022-11-15T03:57:44;3.70;;;0.60;;
25365;SDS011;13315;48.274;-1.900;2022-11-15T04:00:10;2.10;;;0.70;;
25365;SDS011;13315;48.274;-1.900;2022-11-15T04:02:36;2.88;;;0.60;;
25365;SDS011;13315;48.274;-1.900;2022-11-15T04:05:02;2.97;;;0.73;;
25365;SDS011;13315;48.274;-1.900;2022-11-15T04:07:29;1.20;;;0.50;;
25365;SDS011;13315;48.274;-1.900;2022-11-15T04:09:54;1.52;;;0.60;;
25365;SDS011;13315;48.274;-1.900;2022-11-15T04:12:37;1.58;;;0.55;;
25365;SDS011;13315;48.274;-1.900;2022-11-15T04:20:09;0.57;;;0.50;;
25365;SDS011;13315;48.274;-1.900;2022-11-15T04:22:59;1.55;;;0.50;;
25365;SDS011;13315;48.274;-1.900;2022-11-15T04:25:45;0.52;;;0.52;;
25365;SDS011;13315;48.274;-1.900;2022-11-15T04:28:14;0.90;;;0.60;;
25365;SDS011;13315;48.274;-1.900;2022-11-15T04:30:39;1.67;;;0.60;;
25365;SDS011;13315;48.274;-1.900;2022-11-15T04:33:05;2.17;;;0.73;;
25365;SDS011;13315;48.274;-1.900;2022-11-15T04:35:31;0.50;;;0.40;;
25365;SDS011;13315;48.274;-1.900;2022-11-15T04:37:57;1.23;;;0.57;;
25365;SDS011;13315;48.274;-1.900;2022-11-15T04:40:24;0.98;;;0.57;;
25365;SDS011;13315;48.274;-1.900;2022-11-15T04:42:49;0.30;;;0.30;;
25365;SDS011;13315;48.274;-1.900;2022-11-15T04:45:15;1.95;;;0.60;;
25365;SDS011;13315;48.274;-1.900;2022-11-15T04:47:43;1.17;;;0.70;;
25365;SDS011;13315;48.274;-1.900;2022-11-15T04:50:10;2.60;;;0.70;;
25365;SDS011;13315;48.274;-1.900;2022-11-15T04:52:42;0.98;;;0.55;;
25365;SDS011;13315;48.274;-1.900;2022-11-15T04:55:14;0.65;;;0.60;;
25365;SDS011;13315;48.274;-1.900;2022-11-15T04:57:40;0.85;;;0.50;;
25365;SDS011;13315;48.274;-1.900;2022-11-15T05:00:07;0.50;;;0.50;;
25365;SDS011;13315;48.274;-1.900;2022-11-15T05:02:35;5.35;;;0.70;;
25365;SDS011;13315;48.274;-1.900;2022-11-15T05:05:20;1.80;;;0.63;;
25365;SDS011;13315;48.274;-1.900;2022-11-15T05:07:46;1.30;;;0.50;;
25365;SDS011;13315;48.274;-1.900;2022-11-15T05:10:11;1.85;;;0.70;;
25365;SDS011;13315;48.274;-1.900;2022-11-15T05:12:37;0.55;;;0.40;;
25365;SDS011;13315;48.274;-1.900;2022-11-15T05:15:03;2.05;;;0.50;;
25365;SDS011;13315;48.274;-1.900;2022-11-15T05:17:29;4.95;;;1.05;;
25365;SDS011;13315;48.274;-1.900;2022-11-15T05:19:55;0.47;;;0.40;;
25365;SDS011;13315;48.274;-1.900;2022-11-15T05:22:21;1.30;;;0.43;;
25365;SDS011;13315;48.274;-1.900;2022-11-15T05:24:47;0.65;;;0.45;;
25365;SDS011;13315;48.274;-1.900;2022-11-15T05:27:13;1.42;;;1.00;;
25365;SDS011;13315;48.274;-1.900;2022-11-15T05:29:39;0.98;;;0.70;;
25365;SDS011;13315;48.274;-1.900;2022-11-15T05:32:05;1.63;;;0.60;;
25365;SDS011;13315;48.274;-1.900;2022-11-15T05:34:31;3.17;;;0.85;;
25365;SDS011;13315;48.274;-1.900;2022-11-15T05:36:57;1.38;;;0.50;;
25365;SDS011;13315;48.274;-1.900;2022-11-15T05:39:24;0.30;;;0.30;;
25365;SDS011;13315;48.274;-1.900;2022-11-15T05:42:09;0.68;;;0.40;;
25365;SDS011;13315;48.274;-1.900;2022-11-15T05:44:37;2.85;;;0.60;;
25365;SDS011;13315;48.274;-1.900;2022-11-15T05:47:05;0.30;;;0.30;;
25365;SDS011;13315;48.274;-1.900;2022-11-15T05:49:36;3.40;;;0.70;;
25365;SDS011;13315;48.274;-1.900;2022-11-15T05:52:05;1.92;;;0.60;;
25365;SDS011;13315;48.274;-1.900;2022-11-15T05:54:35;1.10;;;0.60;;
25365;SDS011;13315;48.274;-1.900;2022-11-15T05:57:02;0.68;;;0.35;;
25365;SDS011;13315;48.274;-1.900;2022-11-15T05:59:29;2.55;;;0.95;;
25365;SDS011;13315;48.274;-1.900;2022-11-15T06:01:56;3.58;;;0.85;;
25365;SDS011;13315;48.274;-1.900;2022-11-15T06:04:22;1.30;;;0.50;;
25365;SDS011;13315;48.274;-1.900;2022-11-15T06:06:48;1.73;;;0.60;;
25365;SDS011;13315;48.274;-1.900;2022-11-15T06:09:14;7.30;;;1.35;;
25365;SDS011;13315;48.274;-1.900;2022-11-15T06:11:39;1.95;;;0.50;;
25365;SDS011;13315;48.274;-1.900;2022-11-15T06:14:05;1.13;;;0.60;;
25365;SDS011;13315;48.274;-1.900;2022-11-15T06:16:31;1.65;;;0.47;;
25365;SDS011;13315;48.274;-1.900;2022-11-15T06:18:57;1.48;;;0.55;;
25365;SDS011;13315;48.274;-1.900;2022-11-15T06:21:22;0.63;;;0.60;;
25365;SDS011;13315;48.274;-1.900;2022-11-15T06:23:48;1.42;;;0.52;;
25365;SDS011;13315;48.274;-1.900;2022-11-15T06:26:14;1.95;;;0.70;;
25365;SDS011;13315;48.274;-1.900;2022-11-15T06:28:40;1.08;;;0.57;;
25365;SDS011;13315;48.274;-1.900;2022-11-15T06:31:07;1.25;;;0.50;;
25365;SDS011;13315;48.274;-1.900;2022-11-15T06:33:36;1.17;;;0.40;;
25365;SDS011;13315;48.274;-1.900;2022-11-15T06:36:02;0.52;;;0.45;;
25365;SDS011;13315;48.274;-1.900;2022-11-15T06:38:29;0.73;;;0.40;;
25365;SDS011;13315;48.274;-1.900;2022-11-15T06:40:55;73.50;;;69.80;;
25365;SDS011;13315;48.274;-1.900;2022-11-15T06:43:30;8.15;;;5.93;;
25365;SDS011;13315;48.274;-1.900;2022-11-15T06:45:57;12.45;;;5.68;;
25365;SDS011;13315;48.274;-1.900;2022-11-15T06:48:24;7.57;;;5.32;;
25365;SDS011;13315;48.274;-1.900;2022-11-15T06:50:54;5.65;;;5.20;;
25365;SDS011;13315;48.274;-1.900;2022-11-15T06:53:21;5.50;;;5.10;;
25365;SDS011;13315;48.274;-1.900;2022-11-15T06:55:48;5.60;;;5.10;;
25365;SDS011;13315;48.274;-1.900;2022-11-15T06:58:14;5.82;;;5.35;;
25365;SDS011;13315;48.274;-1.900;2022-11-15T07:00:40;5.85;;;5.32;;
25365;SDS011;13315;48.274;-1.900;2022-11-15T07:03:06;5.75;;;5.45;;
25365;SDS011;13315;48.274;-1.900;2022-11-15T07:05:34;5.57;;;5.30;;
25365;SDS011;13315;48.274;-1.900;2022-11-15T07:08:02;5.68;;;5.32;;
25365;SDS011;13315;48.274;-1.900;2022-11-15T07:10:29;6.50;;;6.00;;
25365;SDS011;13315;48.274;-1.900;2022-11-15T07:12:56;6.10;;;5.60;;
25365;SDS011;13315;48.274;-1.900;2022-11-15T07:15:23;8.93;;;7.10;;
25365;SDS011;13315;48.274;-1.900;2022-11-15T07:17:50;9.15;;;8.43;;
25365;SDS011;13315;48.274;-1.900;2022-11-15T07:20:16;8.77;;;8.18;;
25365;SDS011;13315;48.274;-1.900;2022-11-15T07:22:42;9.20;;;8.50;;
25365;SDS011;13315;48.274;-1.900;2022-11-15T07:25:10;9.98;;;9.07;;
25365;SDS011;13315;48.274;-1.900;2022-11-15T07:27:36;4.20;;;0.87;;
25365;SDS011;13315;48.274;-1.900;2022-11-15T07:30:03;2.72;;;0.77;;
25365;SDS011;13315;48.274;-1.900;2022-11-15T07:32:29;4.70;;;0.73;;
25365;SDS011;13315;48.274;-1.900;2022-11-15T07:34:55;3.72;;;0.60;;
25365;SDS011;13315;48.274;-1.900;2022-11-15T07:37:21;2.53;;;0.70;;
25365;SDS011;13315;48.274;-1.900;2022-11-15T07:39:47;1.33;;;0.70;;
25365;SDS011;13315;48.274;-1.900;2022-11-15T07:42:13;8.30;;;1.33;;
25365;SDS011;13315;48.274;-1.900;2022-11-15T07:44:57;2.75;;;0.80;;
25365;SDS011;13315;48.274;-1.900;2022-11-15T07:47:23;1.73;;;0.65;;
25365;SDS011;13315;48.274;-1.900;2022-11-15T07:49:48;0.75;;;0.50;;
25365;SDS011;13315;48.274;-1.900;2022-11-15T07:52:14;1.38;;;0.63;;
25365;SDS011;13315;48.274;-1.900;2022-11-15T07:54:40;3.45;;;0.80;;
25365;SDS011;13315;48.274;-1.900;2022-11-15T07:57:05;1.27;;;0.60;;
25365;SDS011;13315;48.274;-1.900;2022-11-15T07:59:34;3.42;;;0.80;;
25365;SDS011;13315;48.274;-1.900;2022-11-15T08:02:00;4.13;;;0.70;;
25365;SDS011;13315;48.274;-1.900;2022-11-15T08:04:25;3.58;;;0.63;;
25365;SDS011;13315;48.274;-1.900;2022-11-15T08:06:51;0.90;;;0.70;;
25365;SDS011;13315;48.274;-1.900;2022-11-15T08:09:17;3.00;;;0.80;;
25365;SDS011;13315;48.274;-1.900;2022-11-15T08:11:43;1.80;;;0.65;;
25365;SDS011;13315;48.274;-1.900;2022-11-15T08:14:08;4.03;;;1.35;;
25365;SDS011;13315;48.274;-1.900;2022-11-15T08:16:34;2.45;;;0.60;;
25365;SDS011;13315;48.274;-1.900;2022-11-15T08:50:47;1.90;;;0.70;;
25365;SDS011;13315;48.274;-1.900;2022-11-15T08:53:12;1.15;;;0.60;;
25365;SDS011;13315;48.274;-1.900;2022-11-15T08:55:40;0.80;;;0.80;;
25365;SDS011;13315;48.274;-1.900;2022-11-15T08:58:06;47.00;;;11.43;;
25365;SDS011;13315;48.274;-1.900;2022-11-15T09:00:32;666.20;;;216.98;;
25365;SDS011;13315;48.274;-1.900;2022-11-15T09:02:58;784.33;;;252.18;;
25365;SDS011;13315;48.274;-1.900;2022-11-15T09:05:24;1094.97;;;314.73;;
25365;SDS011;13315;48.274;-1.900;2022-11-15T09:07:53;908.90;;;286.70;;
25365;SDS011;13315;48.274;-1.900;2022-11-15T09:10:20;800.38;;;251.43;;
25365;SDS011;13315;48.274;-1.900;2022-11-15T09:12:46;808.95;;;426.27;;
25365;SDS011;13315;48.274;-1.900;2022-11-15T09:15:13;800.10;;;424.35;;
25365;SDS011;13315;48.274;-1.900;2022-11-15T09:17:40;759.78;;;475.42;;
25365;SDS011;13315;48.274;-1.900;2022-11-15T09:20:06;751.58;;;492.55;;
25365;SDS011;13315;48.274;-1.900;2022-11-15T09:22:33;785.05;;;553.50;;
25365;SDS011;13315;48.274;-1.900;2022-11-15T09:24:58;762.13;;;486.05;;
25365;SDS011;13315;48.274;-1.900;2022-11-15T09:27:28;839.05;;;489.90;;
25365;SDS011;13315;48.274;-1.900;2022-11-15T09:29:54;834.67;;;555.67;;
25365;SDS011;13315;48.274;-1.900;2022-11-15T09:32:20;772.10;;;477.80;;
25365;SDS011;13315;48.274;-1.900;2022-11-15T09:34:48;788.22;;;541.13;;
25365;SDS011;13315;48.274;-1.900;2022-11-15T09:37:14;765.75;;;520.13;;
25365;SDS011;13315;48.274;-1.900;2022-11-15T09:39:40;769.95;;;543.25;;
25365;SDS011;13315;48.274;-1.900;2022-11-15T09:44:44;778.78;;;554.03;;
25365;SDS011;13315;48.274;-1.900;2022-11-15T09:50:08;591.50;;;130.00;;
25365;SDS011;13315;48.274;-1.900;2022-11-15T09:52:36;222.68;;;42.30;;
25365;SDS011;13315;48.274;-1.900;2022-11-15T09:55:04;7.95;;;2.50;;
25365;SDS011;13315;48.274;-1.900;2022-11-15T10:00:21;111.57;;;25.63;;
25365;SDS011;13315;48.274;-1.900;2022-11-15T10:05:59;387.30;;;74.05;;
25365;SDS011;13315;48.274;-1.900;2022-11-15T10:11:20;6.47;;;2.13;;
25365;SDS011;13315;48.274;-1.900;2022-11-15T10:13:50;13.25;;;4.38;;
25365;SDS011;13315;48.274;-1.900;2022-11-15T10:24:25;17.25;;;5.65;;
25365;SDS011;13315;48.274;-1.900;2022-11-15T10:26:56;19.70;;;7.68;;
25365;SDS011;13315;48.274;-1.900;2022-11-15T10:29:22;376.00;;;69.28;;
25365;SDS011;13315;48.274;-1.900;2022-11-15T10:31:49;14.30;;;4.68;;
25365;SDS011;13315;48.274;-1.900;2022-11-15T10:34:16;9.27;;;3.22;;
25365;SDS011;13315;48.274;-1.900;2022-11-15T11:44:04;89.20;;;29.33;;
25365;SDS011;13315;48.274;-1.900;2022-11-15T11:56:29;1.52;;;1.40;;
25365;SDS011;13315;48.274;-1.900;2022-11-15T13:44:54;87.95;;;29.42;;
